sensor_id;sensor_type;location;lat;lon;timestamp;pressure;altitude;pressure_sealevel;temperature;humidity
18858;BME280;9558;50.178;8.370;2022-12-29T00:01:51;97485.66;;;8.44;100.00
18858;BME280;9558;50.178;8.370;2022-12-29T00:04:18;97488.88;;;8.46;100.00
18858;BME280;9558;50.178;8.370;2022-12-29T00:06:45;97503.97;;;8.50;100.00
18858;BME280;9558;50.178;8.370;2022-12-29T00:09:12;97485.56;;;8.53;100.00
18858;BME280;9558;50.178;8.370;2022-12-29T00:11:39;97490.53;;;8.54;100.00
18858;BME280;9558;50.178;8.370;2022-12-29T00:14:07;97482.88;;;8.61;100.00
18858;BME280;9558;50.178;8.370;2022-12-29T00:16:51;97490.72;;;8.68;100.00
18858;BME280;9558;50.178;8.370;2022-12-29T00:19:18;97498.53;;;8.74;100.00
18858;BME280;9558;50.178;8.370;2022-12-29T00:22:03;97500.41;;;8.80;100.00
18858;BME280;9558;50.178;8.370;2022-12-29T00:24:47;97504.56;;;8.81;100.00
18858;BME280;9558;50.178;8.370;2022-12-29T00:27:32;97497.19;;;8.93;100.00
18858;BME280;9558;50.178;8.370;2022-12-29T00:30:18;97493.78;;;8.93;100.00
18858;BME280;9558;50.178;8.370;2022-12-29T00:33:08;97500.81;;;8.99;100.00
18858;BME280;9558;50.178;8.370;2022-12-29T00:35:56;97498.66;;;9.03;100.00
18858;BME280;9558;50.178;8.370;2022-12-29T00:38:27;97493.69;;;9.01;100.00
18858;BME280;9558;50.178;8.370;2022-12-29T00:41:14;97517.19;;;9.06;100.00
18858;BME280;9558;50.178;8.370;2022-12-29T00:43:58;97509.06;;;9.09;100.00
18858;BME280;9558;50.178;8.370;2022-12-29T00:46:36;97505.84;;;9.07;100.00
18858;BME280;9558;50.178;8.370;2022-12-29T00:49:03;97499.34;;;9.11;100.00
18858;BME280;9558;50.178;8.370;2022-12-29T00:51:47;97494.00;;;9.13;100.00
18858;BME280;9558;50.178;8.370;2022-12-29T00:54:16;97488.03;;;9.12;100.00
18858;BME280;9558;50.178;8.370;2022-12-29T00:56:42;97487.25;;;9.12;100.00
18858;BME280;9558;50.178;8.370;2022-12-29T00:59:10;97487.06;;;9.13;100.00
18858;BME280;9558;50.178;8.370;2022-12-29T01:01:37;97484.13;;;9.16;100.00
18858;BME280;9558;50.178;8.370;2022-12-29T01:04:04;97492.84;;;9.15;100.00
18858;BME280;9558;50.178;8.370;2022-12-29T01:06:31;97495.19;;;9.10;100.00
18858;BME280;9558;50.178;8.370;2022-12-29T01:08:57;97487.06;;;9.13;100.00
18858;BME280;9558;50.178;8.370;2022-12-29T01:11:43;97492.84;;;9.15;100.00
18858;BME280;9558;50.178;8.370;2022-12-29T01:14:09;97488.50;;;9.16;100.00
18858;BME280;9558;50.178;8.370;2022-12-29T01:16:36;97483.50;;;9.14;100.00
18858;BME280;9558;50.178;8.370;2022-12-29T01:19:03;97494.44;;;9.16;100.00
18858;BME280;9558;50.178;8.370;2022-12-29T01:21:29;97484.31;;;9.15;100.00
18858;BME280;9558;50.178;8.370;2022-12-29T01:23:56;97484.13;;;9.16;100.00
18858;BME280;9558;50.178;8.370;2022-12-29T01:26:23;97476.19;;;9.18;100.00
18858;BME280;9558;50.178;8.370;2022-12-29T01:28:50;97485.34;;;9.21;100.00
18858;BME280;9558;50.178;8.370;2022-12-29T01:31:17;97476.63;;;9.22;100.00
18858;BME280;9558;50.178;8.370;2022-12-29T01:33:44;97480.56;;;9.18;100.00
18858;BME280;9558;50.178;8.370;2022-12-29T01:36:12;97478.97;;;9.16;100.00
18858;BME280;9558;50.178;8.370;2022-12-29T01:38:39;97492.84;;;9.15;100.00
18858;BME280;9558;50.178;8.370;2022-12-29T01:41:07;97484.50;;;9.13;100.00
18858;BME280;9558;50.178;8.370;2022-12-29T01:43:42;97484.03;;;9.10;100.00
18858;BME280;9558;50.178;8.370;2022-12-29T01:46:17;97479.25;;;9.07;100.00
18858;BME280;9558;50.178;8.370;2022-12-29T01:48:47;97483.63;;;9.06;100.00
18858;BME280;9558;50.178;8.370;2022-12-29T01:51:15;97482.38;;;9.02;100.00
18858;BME280;9558;50.178;8.370;2022-12-29T01:53:43;97486.31;;;8.98;100.00
18858;BME280;9558;50.178;8.370;2022-12-29T01:56:12;97492.06;;;9.00;100.00
18858;BME280;9558;50.178;8.370;2022-12-29T01:58:44;97486.31;;;8.98;100.00
18858;BME280;9558;50.178;8.370;2022-12-29T02:01:13;97483.13;;;8.96;100.00
18858;BME280;9558;50.178;8.370;2022-12-29T02:03:41;97477.97;;;8.96;100.00
18858;BME280;9558;50.178;8.370;2022-12-29T02:06:11;97478.28;;;8.93;100.00
18858;BME280;9558;50.178;8.370;2022-12-29T02:08:39;97476.72;;;8.92;100.00
18858;BME280;9558;50.178;8.370;2022-12-29T02:11:07;97466.75;;;8.89;100.00
18858;BME280;9558;50.178;8.370;2022-12-29T02:13:34;97473.88;;;8.87;100.00
18858;BME280;9558;50.178;8.370;2022-12-29T02:16:06;97468.72;;;8.87;100.00
18858;BME280;9558;50.178;8.370;2022-12-29T02:18:43;97454.84;;;8.88;100.00
18858;BME280;9558;50.178;8.370;2022-12-29T02:21:41;97448.84;;;8.87;100.00
18858;BME280;9558;50.178;8.370;2022-12-29T02:24:32;97452.63;;;8.85;100.00
18858;BME280;9558;50.178;8.370;2022-12-29T02:27:21;97444.53;;;8.88;100.00
18858;BME280;9558;50.178;8.370;2022-12-29T02:30:12;97434.19;;;8.88;100.00
18858;BME280;9558;50.178;8.370;2022-12-29T02:32:50;97429.03;;;8.88;100.00
18858;BME280;9558;50.178;8.370;2022-12-29T02:35:25;97413.56;;;8.88;100.00
18858;BME280;9558;50.178;8.370;2022-12-29T02:38:01;97430.63;;;8.89;100.00
18858;BME280;9558;50.178;8.370;2022-12-29T02:40:37;97420.47;;;8.87;100.00
18858;BME280;9558;50.178;8.370;2022-12-29T02:43:19;97424.25;;;8.85;100.00
18858;BME280;9558;50.178;8.370;2022-12-29T02:45:52;97422.88;;;8.89;100.00
18858;BME280;9558;50.178;8.370;2022-12-29T02:48:25;97427.06;;;8.90;100.00
18858;BME280;9558;50.178;8.370;2022-12-29T02:50:58;97405.44;;;8.91;100.00
18858;BME280;9558;50.178;8.370;2022-12-29T02:53:26;97402.50;;;8.94;100.00
18858;BME280;9558;50.178;8.370;2022-12-29T02:56:11;97407.66;;;8.94;100.00
18858;BME280;9558;50.178;8.370;2022-12-29T02:58:38;97400.53;;;8.96;100.00
18858;BME280;9558;50.178;8.370;2022-12-29T03:01:16;97401.94;;;8.98;100.00
18858;BME280;9558;50.178;8.370;2022-12-29T03:03:56;97409.88;;;8.97;100.00
18858;BME280;9558;50.178;8.370;2022-12-29T03:06:33;97398.56;;;8.98;100.00
18858;BME280;9558;50.178;8.370;2022-12-29T03:09:13;97393.41;;;8.98;100.00
18858;BME280;9558;50.178;8.370;2022-12-29T03:11:48;97391.44;;;9.00;100.00
18858;BME280;9558;50.178;8.370;2022-12-29T03:14:39;97395.00;;;8.99;100.00
18858;BME280;9558;50.178;8.370;2022-12-29T03:20:18;97383.09;;;8.98;100.00
18858;BME280;9558;50.178;8.370;2022-12-29T03:22:48;97385.47;;;8.99;100.00
18858;BME280;9558;50.178;8.370;2022-12-29T03:25:22;97383.09;;;8.98;100.00
18858;BME280;9558;50.178;8.370;2022-12-29T03:27:53;97376.31;;;8.97;100.00
18858;BME280;9558;50.178;8.370;2022-12-29T03:30:22;97386.63;;;8.97;100.00
18858;BME280;9558;50.178;8.370;2022-12-29T03:32:52;97377.91;;;8.98;100.00
18858;BME280;9558;50.178;8.370;2022-12-29T03:35:24;97372.75;;;8.98;100.00
18858;BME280;9558;50.178;8.370;2022-12-29T03:37:55;97374.38;;;8.99;100.00
18858;BME280;9558;50.178;8.370;2022-12-29T03:40:25;97379.53;;;8.99;100.00
18858;BME280;9558;50.178;8.370;2022-12-29T03:42:54;97370.78;;;9.00;100.00
18858;BME280;9558;50.178;8.370;2022-12-29T03:45:21;97374.38;;;8.99;100.00
18858;BME280;9558;50.178;8.370;2022-12-29T03:47:48;97371.59;;;9.01;100.00
18858;BME280;9558;50.178;8.370;2022-12-29T03:50:14;97379.16;;;9.02;100.00
18858;BME280;9558;50.178;8.370;2022-12-29T03:52:42;97375.94;;;9.00;100.00
18858;BME280;9558;50.178;8.370;2022-12-29T03:55:09;97372.19;;;9.03;100.00
18858;BME280;9558;50.178;8.370;2022-12-29T03:57:36;97374.00;;;9.02;100.00
18858;BME280;9558;50.178;8.370;2022-12-29T04:00:03;97363.66;;;9.02;100.00
18858;BME280;9558;50.178;8.370;2022-12-29T04:02:30;97353.34;;;9.02;100.00
18858;BME280;9558;50.178;8.370;2022-12-29T04:04:57;97360.13;;;9.03;100.00
18858;BME280;9558;50.178;8.370;2022-12-29T04:07:23;97358.31;;;9.04;100.00
18858;BME280;9558;50.178;8.370;2022-12-29T04:09:51;97351.38;;;9.04;100.00
18858;BME280;9558;50.178;8.370;2022-12-29T04:12:17;97352.00;;;9.06;100.00
18858;BME280;9558;50.178;8.370;2022-12-29T04:14:44;97349.78;;;9.03;100.00
18858;BME280;9558;50.178;8.370;2022-12-29T04:17:10;97352.78;;;9.07;100.00
18858;BME280;9558;50.178;8.370;2022-12-29T04:19:37;97354.56;;;9.06;100.00
18858;BME280;9558;50.178;8.370;2022-12-29T04:22:03;97362.72;;;9.10;100.00
18858;BME280;9558;50.178;8.370;2022-12-29T04:24:30;97362.53;;;9.11;100.00
18858;BME280;9558;50.178;8.370;2022-12-29T04:26:58;97364.59;;;9.16;100.00
18858;BME280;9558;50.178;8.370;2022-12-29T04:29:24;97365.75;;;9.13;100.00
18858;BME280;9558;50.178;8.370;2022-12-29T04:31:51;97364.94;;;9.13;100.00
18858;BME280;9558;50.178;8.370;2022-12-29T04:34:17;97362.34;;;9.13;100.00
18858;BME280;9558;50.178;8.370;2022-12-29T04:36:44;97370.91;;;9.13;100.00
18858;BME280;9558;50.178;8.370;2022-12-29T04:39:10;97360.41;;;9.15;100.00
18858;BME280;9558;50.178;8.370;2022-12-29T04:41:37;97350.28;;;9.13;100.00
18858;BME280;9558;50.178;8.370;2022-12-29T04:44:05;97364.53;;;9.09;100.00
18858;BME280;9558;50.178;8.370;2022-12-29T04:46:31;97352.22;;;9.11;100.00
18858;BME280;9558;50.178;8.370;2022-12-29T04:48:58;97357.75;;;9.08;100.00
18858;BME280;9558;50.178;8.370;2022-12-29T04:51:25;97352.22;;;9.11;100.00
18858;BME280;9558;50.178;8.370;2022-12-29T04:53:52;97347.06;;;9.11;100.00
18858;BME280;9558;50.178;8.370;2022-12-29T04:56:18;97357.75;;;9.08;100.00
18858;BME280;9558;50.178;8.370;2022-12-29T04:58:45;97343.88;;;9.09;100.00
18858;BME280;9558;50.178;8.370;2022-12-29T05:01:13;97351.63;;;9.09;100.00
18858;BME280;9558;50.178;8.370;2022-12-29T05:03:39;97343.88;;;9.09;100.00
18858;BME280;9558;50.178;8.370;2022-12-29T05:06:06;97347.06;;;9.11;100.00
18858;BME280;9558;50.178;8.370;2022-12-29T05:08:33;97353.81;;;9.12;100.00
18858;BME280;9558;50.178;8.370;2022-12-29T05:10:59;97349.63;;;9.11;100.00
18858;BME280;9558;50.178;8.370;2022-12-29T05:13:26;97359.59;;;9.14;100.00
18858;BME280;9558;50.178;8.370;2022-12-29T05:15:53;97356.66;;;9.18;100.00
18858;BME280;9558;50.178;8.370;2022-12-29T05:18:21;97340.34;;;9.17;100.00
18858;BME280;9558;50.178;8.370;2022-12-29T05:20:47;97345.97;;;9.21;100.00
18858;BME280;9558;50.178;8.370;2022-12-29T05:23:14;97346.56;;;9.23;100.00
18858;BME280;9558;50.178;8.370;2022-12-29T05:25:40;97352.72;;;9.22;100.00
18858;BME280;9558;50.178;8.370;2022-12-29T05:28:07;97357.50;;;9.25;100.00
18858;BME280;9558;50.178;8.370;2022-12-29T05:30:34;97355.34;;;9.28;100.00
18858;BME280;9558;50.178;8.370;2022-12-29T05:33:00;97359.09;;;9.26;100.00
18858;BME280;9558;50.178;8.370;2022-12-29T05:35:28;97351.97;;;9.28;100.00
18858;BME280;9558;50.178;8.370;2022-12-29T05:37:54;97352.34;;;9.25;100.00
18858;BME280;9558;50.178;8.370;2022-12-29T05:40:21;97357.50;;;9.25;100.00
18858;BME280;9558;50.178;8.370;2022-12-29T05:42:47;97353.06;;;9.19;100.00
18858;BME280;9558;50.178;8.370;2022-12-29T05:45:14;97359.84;;;9.20;100.00
18858;BME280;9558;50.178;8.370;2022-12-29T05:47:40;97352.66;;;9.15;100.00
18858;BME280;9558;50.178;8.370;2022-12-29T05:50:07;97357.00;;;9.14;100.00
18858;BME280;9558;50.178;8.370;2022-12-29T05:52:35;97360.59;;;9.13;100.00
18858;BME280;9558;50.178;8.370;2022-12-29T05:55:01;97361.75;;;9.11;100.00
18858;BME280;9558;50.178;8.370;2022-12-29T05:57:28;97352.59;;;9.08;100.00
18858;BME280;9558;50.178;8.370;2022-12-29T05:59:54;97362.31;;;9.06;100.00
18858;BME280;9558;50.178;8.370;2022-12-29T06:02:21;97359.75;;;9.06;100.00
18858;BME280;9558;50.178;8.370;2022-12-29T06:04:48;97360.53;;;9.07;100.00
18858;BME280;9558;50.178;8.370;2022-12-29T06:07:14;97352.00;;;9.06;100.00
18858;BME280;9558;50.178;8.370;2022-12-29T06:09:42;97359.94;;;9.05;100.00
18858;BME280;9558;50.178;8.370;2022-12-29T06:12:08;97357.53;;;9.03;100.00
18858;BME280;9558;50.178;8.370;2022-12-29T06:14:35;97352.19;;;9.05;100.00
18858;BME280;9558;50.178;8.370;2022-12-29T06:17:01;97358.50;;;9.02;100.00
18858;BME280;9558;50.178;8.370;2022-12-29T06:19:28;97357.53;;;9.03;100.00
18858;BME280;9558;50.178;8.370;2022-12-29T06:21:54;97358.50;;;9.02;100.00
18858;BME280;9558;50.178;8.370;2022-12-29T06:24:21;97354.94;;;9.03;100.00
18858;BME280;9558;50.178;8.370;2022-12-29T06:26:49;97348.78;;;9.04;100.00
18858;BME280;9558;50.178;8.370;2022-12-29T06:29:15;97351.75;;;9.01;100.00
18858;BME280;9558;50.178;8.370;2022-12-29T06:31:43;97346.41;;;9.03;100.00
18858;BME280;9558;50.178;8.370;2022-12-29T06:34:10;97348.19;;;9.02;100.00
18858;BME280;9558;50.178;8.370;2022-12-29T06:36:37;97350.41;;;9.05;100.00
18858;BME280;9558;50.178;8.370;2022-12-29T06:39:04;97352.19;;;9.05;100.00
18858;BME280;9558;50.178;8.370;2022-12-29T06:41:30;97350.19;;;9.07;100.00
18858;BME280;9558;50.178;8.370;2022-12-29T06:43:59;97353.34;;;9.02;100.00
18858;BME280;9558;50.178;8.370;2022-12-29T06:46:25;97350.41;;;9.05;100.00
18858;BME280;9558;50.178;8.370;2022-12-29T06:48:51;97364.91;;;9.06;100.00
18858;BME280;9558;50.178;8.370;2022-12-29T06:51:18;97352.19;;;9.05;100.00
18858;BME280;9558;50.178;8.370;2022-12-29T06:53:44;97347.38;;;9.02;100.00
18858;BME280;9558;50.178;8.370;2022-12-29T06:56:11;97356.72;;;9.03;100.00
18858;BME280;9558;50.178;8.370;2022-12-29T06:58:37;97357.53;;;9.03;100.00
18858;BME280;9558;50.178;8.370;2022-12-29T07:01:05;97360.47;;;9.00;100.00
18858;BME280;9558;50.178;8.370;2022-12-29T07:03:32;97346.16;;;8.97;100.00
18858;BME280;9558;50.178;8.370;2022-12-29T07:05:58;97350.31;;;8.98;100.00
18858;BME280;9558;50.178;8.370;2022-12-29T07:08:25;97352.13;;;8.98;100.00
18858;BME280;9558;50.178;8.370;2022-12-29T07:10:51;97333.88;;;8.99;100.00
18858;BME280;9558;50.178;8.370;2022-12-29T07:13:18;97343.59;;;8.97;100.00
18858;BME280;9558;50.178;8.370;2022-12-29T07:15:44;97342.59;;;8.98;100.00
18858;BME280;9558;50.178;8.370;2022-12-29T07:18:12;97339.81;;;9.00;100.00
18858;BME280;9558;50.178;8.370;2022-12-29T07:20:38;97339.47;;;9.03;100.00
18858;BME280;9558;50.178;8.370;2022-12-29T07:23:05;97336.88;;;9.03;100.00
18858;BME280;9558;50.178;8.370;2022-12-29T07:25:31;97339.47;;;9.03;100.00
18858;BME280;9558;50.178;8.370;2022-12-29T07:28:00;97336.88;;;9.03;100.00
18858;BME280;9558;50.178;8.370;2022-12-29T07:30:26;97339.09;;;9.06;100.00
18858;BME280;9558;50.178;8.370;2022-12-29T07:32:53;97338.09;;;9.07;100.00
18858;BME280;9558;50.178;8.370;2022-12-29T07:35:21;97334.34;;;9.10;100.00
18858;BME280;9558;50.178;8.370;2022-12-29T07:37:47;97344.66;;;9.10;100.00
18858;BME280;9558;50.178;8.370;2022-12-29T07:40:14;97347.25;;;9.10;100.00
18858;BME280;9558;50.178;8.370;2022-12-29T07:42:40;97347.69;;;9.13;100.00
18858;BME280;9558;50.178;8.370;2022-12-29T07:45:08;97354.63;;;9.13;100.00
18858;BME280;9558;50.178;8.370;2022-12-29T07:47:35;97356.03;;;9.15;100.00
18858;BME280;9558;50.178;8.370;2022-12-29T07:50:01;97354.28;;;9.16;100.00
18858;BME280;9558;50.178;8.370;2022-12-29T07:52:29;97351.50;;;9.18;100.00
18858;BME280;9558;50.178;8.370;2022-12-29T07:54:56;97353.06;;;9.19;100.00
18858;BME280;9558;50.178;8.370;2022-12-29T07:57:22;97359.84;;;9.20;100.00
18858;BME280;9558;50.178;8.370;2022-12-29T07:59:49;97353.06;;;9.19;100.00
18858;BME280;9558;50.178;8.370;2022-12-29T08:02:15;97369.19;;;9.21;100.00
18858;BME280;9558;50.178;8.370;2022-12-29T08:04:42;97368.22;;;9.22;100.00
18858;BME280;9558;50.178;8.370;2022-12-29T08:07:08;97379.16;;;9.24;100.00
18858;BME280;9558;50.178;8.370;2022-12-29T08:09:36;97388.03;;;9.21;100.00
18858;BME280;9558;50.178;8.370;2022-12-29T08:12:02;97382.31;;;9.26;100.00
18858;BME280;9558;50.178;8.370;2022-12-29T08:14:29;97387.69;;;9.24;100.00
18858;BME280;9558;50.178;8.370;2022-12-29T08:16:55;97388.13;;;9.28;100.00
18858;BME280;9558;50.178;8.370;2022-12-29T08:19:22;97391.25;;;9.23;100.00
18858;BME280;9558;50.178;8.370;2022-12-29T08:21:48;97390.41;;;9.16;100.00
18858;BME280;9558;50.178;8.370;2022-12-29T08:24:15;97406.50;;;9.18;100.00
18858;BME280;9558;50.178;8.370;2022-12-29T08:26:43;97379.72;;;9.19;100.00
18858;BME280;9558;50.178;8.370;2022-12-29T08:29:09;97399.34;;;9.20;100.00
18858;BME280;9558;50.178;8.370;2022-12-29T08:31:36;97395.22;;;9.26;100.00
18858;BME280;9558;50.178;8.370;2022-12-29T08:34:02;97396.47;;;9.30;100.00
18858;BME280;9558;50.178;8.370;2022-12-29T08:36:30;97404.22;;;9.30;100.00
18858;BME280;9558;50.178;8.370;2022-12-29T08:38:56;97404.84;;;9.32;100.00
18858;BME280;9558;50.178;8.370;2022-12-29T08:41:23;97404.28;;;9.37;100.00
18858;BME280;9558;50.178;8.370;2022-12-29T08:43:52;97410.03;;;9.39;100.00
18858;BME280;9558;50.178;8.370;2022-12-29T08:46:18;97431.94;;;9.43;100.00
18858;BME280;9558;50.178;8.370;2022-12-29T08:48:45;97426.38;;;9.46;100.00
18858;BME280;9558;50.178;8.370;2022-12-29T08:51:11;97422.03;;;9.46;100.00
18858;BME280;9558;50.178;8.370;2022-12-29T08:53:38;97426.75;;;9.43;100.00
18858;BME280;9558;50.178;8.370;2022-12-29T08:56:05;97421.78;;;9.41;100.00
18858;BME280;9558;50.178;8.370;2022-12-29T08:58:32;97429.53;;;9.41;100.00
18858;BME280;9558;50.178;8.370;2022-12-29T09:01:00;97439.28;;;9.46;100.00
18858;BME280;9558;50.178;8.370;2022-12-29T09:03:27;97428.38;;;9.44;100.00
18858;BME280;9558;50.178;8.370;2022-12-29T09:05:54;97421.66;;;9.49;100.00
18858;BME280;9558;50.178;8.370;2022-12-29T09:08:22;97421.28;;;9.52;100.00
18858;BME280;9558;50.178;8.370;2022-12-29T09:10:49;97423.25;;;9.50;100.00
18858;BME280;9558;50.178;8.370;2022-12-29T09:13:17;97431.00;;;9.50;100.00
18858;BME280;9558;50.178;8.370;2022-12-29T09:15:44;97438.38;;;9.54;100.00
18858;BME280;9558;50.178;8.370;2022-12-29T09:18:12;97444.34;;;9.54;100.00
18858;BME280;9558;50.178;8.370;2022-12-29T09:20:38;97421.53;;;9.58;100.00
18858;BME280;9558;50.178;8.370;2022-12-29T09:23:05;97436.03;;;9.59;100.00
18858;BME280;9558;50.178;8.370;2022-12-29T09:25:32;97450.53;;;9.60;100.00
18858;BME280;9558;50.178;8.370;2022-12-29T09:27:59;97442.41;;;9.63;100.00
18858;BME280;9558;50.178;8.370;2022-12-29T09:30:28;97440.88;;;9.68;100.00
18858;BME280;9558;50.178;8.370;2022-12-29T09:32:54;97433.56;;;9.72;100.00
18858;BME280;9558;50.178;8.370;2022-12-29T09:35:22;97446.28;;;9.74;100.00
18858;BME280;9558;50.178;8.370;2022-12-29T09:37:49;97438.94;;;9.77;100.00
18858;BME280;9558;50.178;8.370;2022-12-29T09:40:23;97445.34;;;9.81;100.00
18858;BME280;9558;50.178;8.370;2022-12-29T09:45:44;97453.91;;;9.82;100.00
18858;BME280;9558;50.178;8.370;2022-12-29T09:48:16;97449.16;;;9.85;100.00
18858;BME280;9558;50.178;8.370;2022-12-29T09:50:47;97453.75;;;9.90;100.00
18858;BME280;9558;50.178;8.370;2022-12-29T09:53:21;97463.34;;;9.96;100.00
18858;BME280;9558;50.178;8.370;2022-12-29T09:55:52;97458.59;;;10.00;100.00
18858;BME280;9558;50.178;8.370;2022-12-29T09:58:25;97451.06;;;10.05;100.00
18858;BME280;9558;50.178;8.370;2022-12-29T10:00:59;97460.19;;;10.01;100.00
18858;BME280;9558;50.178;8.370;2022-12-29T10:03:35;97447.69;;;10.05;100.00
18858;BME280;9558;50.178;8.370;2022-12-29T10:06:10;97446.69;;;10.06;100.00
18858;BME280;9558;50.178;8.370;2022-12-29T10:08:40;97453.03;;;10.03;100.00
18858;BME280;9558;50.178;8.370;2022-12-29T10:11:15;97435.31;;;10.00;100.00
18858;BME280;9558;50.178;8.370;2022-12-29T10:14:02;97437.50;;;9.96;100.00
18858;BME280;9558;50.178;8.370;2022-12-29T10:16:37;97452.03;;;9.97;100.00
18858;BME280;9558;50.178;8.370;2022-12-29T10:19:45;97451.00;;;9.92;100.00
18858;BME280;9558;50.178;8.370;2022-12-29T10:22:23;97455.97;;;9.93;100.00
18858;BME280;9558;50.178;8.370;2022-12-29T10:24:53;97453.81;;;9.97;100.00
18858;BME280;9558;50.178;8.370;2022-12-29T10:27:21;97461.34;;;9.92;100.00
18858;BME280;9558;50.178;8.370;2022-12-29T10:29:49;97460.53;;;9.91;100.00
18858;BME280;9558;50.178;8.370;2022-12-29T10:32:25;97471.28;;;9.95;100.00
18858;BME280;9558;50.178;8.370;2022-12-29T10:34:55;97473.31;;;9.99;100.00
18858;BME280;9558;50.178;8.370;2022-12-29T10:37:30;97470.16;;;10.04;100.00
18858;BME280;9558;50.178;8.370;2022-12-29T10:39:59;97474.59;;;10.10;100.00
18858;BME280;9558;50.178;8.370;2022-12-29T10:42:28;97468.25;;;10.19;100.00
18858;BME280;9558;50.178;8.370;2022-12-29T10:44:56;97477.06;;;10.25;100.00
18858;BME280;9558;50.178;8.370;2022-12-29T10:47:25;97458.38;;;10.30;100.00
18858;BME280;9558;50.178;8.370;2022-12-29T10:49:54;97457.59;;;10.29;100.00
18858;BME280;9558;50.178;8.370;2022-12-29T10:52:22;97467.00;;;10.37;100.00
18858;BME280;9558;50.178;8.370;2022-12-29T10:54:53;97468.59;;;10.38;100.00
18858;BME280;9558;50.178;8.370;2022-12-29T10:57:26;97461.06;;;10.43;100.00
18858;BME280;9558;50.178;8.370;2022-12-29T10:59:53;97458.50;;;10.43;100.00
18858;BME280;9558;50.178;8.370;2022-12-29T11:02:39;97464.84;;;10.47;100.00
18858;BME280;9558;50.178;8.370;2022-12-29T11:05:16;97475.25;;;10.54;100.00
18858;BME280;9558;50.178;8.370;2022-12-29T11:07:46;97466.31;;;10.57;100.00
18858;BME280;9558;50.178;8.370;2022-12-29T11:10:20;97469.47;;;10.59;100.00
18858;BME280;9558;50.178;8.370;2022-12-29T11:13:00;97463.72;;;10.57;100.00
18858;BME280;9558;50.178;8.370;2022-12-29T11:15:28;97464.50;;;10.57;100.00
18858;BME280;9558;50.178;8.370;2022-12-29T11:18:04;97471.81;;;10.47;100.00
18858;BME280;9558;50.178;8.370;2022-12-29T11:20:33;97480.75;;;10.44;100.00
18858;BME280;9558;50.178;8.370;2022-12-29T11:23:01;97499.06;;;10.43;100.00
18858;BME280;9558;50.178;8.370;2022-12-29T11:25:30;97494.88;;;10.42;100.00
18858;BME280;9558;50.178;8.370;2022-12-29T11:27:59;97497.88;;;10.45;100.00
18858;BME280;9558;50.178;8.370;2022-12-29T11:30:28;97489.34;;;10.45;100.00
18858;BME280;9558;50.178;8.370;2022-12-29T11:32:57;97490.72;;;10.47;100.00
18858;BME280;9558;50.178;8.370;2022-12-29T11:35:33;97490.69;;;10.41;100.00
18858;BME280;9558;50.178;8.370;2022-12-29T11:38:02;97494.31;;;10.46;100.00
18858;BME280;9558;50.178;8.370;2022-12-29T11:40:30;97494.72;;;10.50;100.00
18858;BME280;9558;50.178;8.370;2022-12-29T11:42:58;97496.31;;;10.51;100.00
18858;BME280;9558;50.178;8.370;2022-12-29T11:45:29;97500.31;;;10.53;100.00
18858;BME280;9558;50.178;8.370;2022-12-29T11:47:59;97496.38;;;10.58;100.00
18858;BME280;9558;50.178;8.370;2022-12-29T11:50:29;97503.88;;;10.52;100.00
18858;BME280;9558;50.178;8.370;2022-12-29T11:52:59;97504.88;;;10.51;100.00
18858;BME280;9558;50.178;8.370;2022-12-29T11:55:27;97493.16;;;10.55;100.00
18858;BME280;9558;50.178;8.370;2022-12-29T11:57:56;97488.81;;;10.56;100.00
18858;BME280;9558;50.178;8.370;2022-12-29T12:00:25;97490.03;;;10.67;100.00
18858;BME280;9558;50.178;8.370;2022-12-29T12:02:57;97494.44;;;10.73;100.00
18858;BME280;9558;50.178;8.370;2022-12-29T12:05:30;97502.81;;;10.75;100.00
18858;BME280;9558;50.178;8.370;2022-12-29T12:08:03;97498.84;;;10.79;100.00
18858;BME280;9558;50.178;8.370;2022-12-29T12:10:35;97500.47;;;10.80;100.00
18858;BME280;9558;50.178;8.370;2022-12-29T12:13:16;97505.25;;;10.83;100.00
18858;BME280;9558;50.178;8.370;2022-12-29T12:15:49;97497.69;;;10.82;100.00
18858;BME280;9558;50.178;8.370;2022-12-29T12:18:19;97502.41;;;10.78;100.00
18858;BME280;9558;50.178;8.370;2022-12-29T12:20:51;97497.22;;;10.71;100.00
18858;BME280;9558;50.178;8.370;2022-12-29T12:23:31;97498.41;;;10.69;100.00
18858;BME280;9558;50.178;8.370;2022-12-29T12:26:02;97477.31;;;10.72;100.00
18858;BME280;9558;50.178;8.370;2022-12-29T12:28:37;97485.69;;;10.74;100.00
18858;BME280;9558;50.178;8.370;2022-12-29T12:31:15;97478.91;;;10.73;100.00
18858;BME280;9558;50.178;8.370;2022-12-29T12:33:46;97479.53;;;10.75;100.00
18858;BME280;9558;50.178;8.370;2022-12-29T12:36:32;97475.75;;;10.78;100.00
18858;BME280;9558;50.178;8.370;2022-12-29T12:39:11;97489.09;;;10.81;98.73
18858;BME280;9558;50.178;8.370;2022-12-29T12:41:47;97474.56;;;10.80;100.00
18858;BME280;9558;50.178;8.370;2022-12-29T12:44:26;97485.31;;;10.84;100.00
18858;BME280;9558;50.178;8.370;2022-12-29T12:47:09;97482.94;;;10.82;100.00
18858;BME280;9558;50.178;8.370;2022-12-29T12:52:48;97485.75;;;10.87;100.00
18858;BME280;9558;50.178;8.370;2022-12-29T12:55:34;97492.31;;;10.83;100.00
18858;BME280;9558;50.178;8.370;2022-12-29T12:58:10;97472.19;;;10.85;100.00
18858;BME280;9558;50.178;8.370;2022-12-29T13:00:48;97473.41;;;10.89;100.00
18858;BME280;9558;50.178;8.370;2022-12-29T13:03:22;97476.56;;;10.92;100.00
18858;BME280;9558;50.178;8.370;2022-12-29T13:06:04;97474.81;;;10.92;98.66
18858;BME280;9558;50.178;8.370;2022-12-29T13:08:52;97465.88;;;10.95;99.68
18858;BME280;9558;50.178;8.370;2022-12-29T13:11:21;97464.25;;;10.94;97.25
18858;BME280;9558;50.178;8.370;2022-12-29T13:14:00;97468.41;;;10.88;94.47
18858;BME280;9558;50.178;8.370;2022-12-29T13:16:39;97473.19;;;10.91;96.23
18858;BME280;9558;50.178;8.370;2022-12-29T13:19:13;97469.63;;;10.92;96.14
18858;BME280;9558;50.178;8.370;2022-12-29T13:21:56;97475.56;;;10.86;95.24
18858;BME280;9558;50.178;8.370;2022-12-29T13:24:32;97474.56;;;10.87;95.67
18858;BME280;9558;50.178;8.370;2022-12-29T13:27:06;97476.38;;;10.86;95.52
18858;BME280;9558;50.178;8.370;2022-12-29T13:29:44;97474.19;;;10.83;95.52
18858;BME280;9558;50.178;8.370;2022-12-29T13:32:23;97474.34;;;10.75;96.79
18858;BME280;9558;50.178;8.370;2022-12-29T13:35:06;97473.34;;;10.76;97.50
18858;BME280;9558;50.178;8.370;2022-12-29T13:37:46;97487.88;;;10.70;97.94